FYJ weather

Middle Peninsula Regional Airport
West Point, Virginia, United States

Public forecast

Using degrees Fahrenheit for public forecast. Weather courtesy of forecast.io.

METAR (pilot weather report)

Retrieved 2019/06/20 08:35 UTC (25 minutes ago):

KFYJ 200835Z AUTO 20003KT 10SM SCT045 SCT050 24/23 A2968 RMK AO1 T02400232

TAF (pilot weather forecast)

Forecast is more than 12 hours old.

Closest forecast is Felker Army Air Field, 24.5 nm (45.4 km) SSE. Retrieved 2019/06/19 18:09 UTC (15 hours ago):

TAF KFAF 191800Z 1918/2024 21009KT 9999 SCT018 BKN100 QNH2971INS BECMG 1918/1919 21010G15KT 8000 -SHRA BKN020 BKN100 QNH2970INS TEMPO 1920/2001 4800 -TSRA BKN015CB BECMG 2001/2002 VRB06KT 9999 NSW BKN020 QNH2963INS BECMG 2013/2014 23012G18KT 9999 BKN030 QNH2956INS BECMG 2021/2022 23015G22KT 8000 -SHRA BKN020 QNH2955INS TX33/2018Z TN22/2010Z LAST NO AMDS AFT 2003 NEXT 2010